createdAt,value
2017-02-18T00:00:34.854Z,28.6
2017-02-18T00:01:32.982Z,28.6
2017-02-18T00:02:34.950Z,28.5
2017-02-18T00:03:33.096Z,28.5
2017-02-18T00:04:33.193Z,28.5
2017-02-18T00:05:33.436Z,28.5
2017-02-18T00:06:33.298Z,28.5
2017-02-18T00:07:33.280Z,28.5
2017-02-18T00:08:35.247Z,28.5
2017-02-18T00:09:33.486Z,28.5
2017-02-18T00:10:33.465Z,28.5
2017-02-18T00:11:33.670Z,28.5
2017-02-18T00:12:33.608Z,28.5
2017-02-18T00:13:35.460Z,28.5
2017-02-18T00:14:35.564Z,28.5
2017-02-18T00:15:35.557Z,28.5
2017-02-18T00:16:35.677Z,28.5
2017-02-18T00:17:34.104Z,28.5
2017-02-18T00:18:35.835Z,28.5
2017-02-18T00:19:35.859Z,28.5
2017-02-18T00:20:33.958Z,28.5
2017-02-18T00:21:35.968Z,28.5
2017-02-18T00:22:35.983Z,28.5
2017-02-18T00:23:36.244Z,28.5
2017-02-18T00:24:34.260Z,28.5
2017-02-18T00:25:34.330Z,28.5
2017-02-18T00:26:36.342Z,28.5
2017-02-18T00:27:34.384Z,28.5
2017-02-18T00:28:34.510Z,28.5
2017-02-18T00:29:34.853Z,28.5
2017-02-18T00:30:34.626Z,28.5
2017-02-18T00:31:36.520Z,28.5
2017-02-18T00:32:34.700Z,28.5
2017-02-18T00:33:36.666Z,28.5
2017-02-18T00:34:36.701Z,28.5
2017-02-18T00:35:34.938Z,28.5
2017-02-18T00:36:34.840Z,28.5
2017-02-18T00:37:36.829Z,28.5
2017-02-18T00:38:36.849Z,28.5
2017-02-18T00:39:36.900Z,28.5
2017-02-18T00:40:36.850Z,28.5
2017-02-18T00:41:35.183Z,28.5
2017-02-18T00:42:36.928Z,28.5
2017-02-18T00:43:36.925Z,28.5
2017-02-18T00:44:35.072Z,28.5
2017-02-18T00:45:35.065Z,28.5
2017-02-18T00:46:35.113Z,28.5
2017-02-18T00:47:35.990Z,28.5
2017-02-18T00:48:37.150Z,28.4
2017-02-18T00:49:37.283Z,28.4
2017-02-18T00:50:35.361Z,28.4
2017-02-18T00:51:35.381Z,28.4
2017-02-18T00:52:37.298Z,28.5
2017-02-18T00:53:35.644Z,28.4
2017-02-18T00:54:35.563Z,28.5
2017-02-18T00:55:37.652Z,28.4
2017-02-18T00:56:37.683Z,28.4
2017-02-18T00:57:35.788Z,28.4
2017-02-18T00:58:35.712Z,28.4
2017-02-18T00:59:37.875Z,28.4
2017-02-18T01:00:35.885Z,28.4
2017-02-18T01:01:37.767Z,28.4
2017-02-18T01:02:37.755Z,28.4
2017-02-18T01:03:35.894Z,28.4
2017-02-18T01:04:37.941Z,28.4
2017-02-18T01:05:36.317Z,28.4
2017-02-18T01:06:38.047Z,28.4
2017-02-18T01:07:36.251Z,28.4
2017-02-18T01:08:38.233Z,28.4
2017-02-18T01:09:38.273Z,28.4
2017-02-18T01:10:36.308Z,28.4
2017-02-18T01:11:38.503Z,28.4
2017-02-18T01:12:36.571Z,28.4
2017-02-18T01:13:36.544Z,28.4
2017-02-18T01:14:36.698Z,28.4
2017-02-18T01:15:36.764Z,28.4
2017-02-18T01:16:36.814Z,28.4
2017-02-18T01:17:38.797Z,28.4
2017-02-18T01:18:38.767Z,28.4
2017-02-18T01:19:38.886Z,28.4
2017-02-18T01:20:38.933Z,28.4
2017-02-18T01:21:36.981Z,28.4
2017-02-18T01:22:38.999Z,28.4
2017-02-18T01:23:39.004Z,28.4
2017-02-18T01:24:37.133Z,28.4
2017-02-18T01:25:37.261Z,28.4
2017-02-18T01:26:37.275Z,28.4
2017-02-18T01:27:39.267Z,28.4
2017-02-18T01:28:37.327Z,28.4
2017-02-18T01:29:37.420Z,28.4
2017-02-18T01:30:39.476Z,28.4
2017-02-18T01:31:39.592Z,28.4
2017-02-18T01:32:39.622Z,28.4
2017-02-18T01:33:37.629Z,28.4
2017-02-18T01:34:37.699Z,28.4
2017-02-18T01:35:39.737Z,28.4
2017-02-18T01:36:39.893Z,28.4
2017-02-18T01:37:39.832Z,28.4
2017-02-18T01:38:39.925Z,28.4
2017-02-18T01:39:39.957Z,28.4
2017-02-18T01:40:38.112Z,28.4
2017-02-18T01:41:38.177Z,28.4
2017-02-18T01:42:38.258Z,28.4
2017-02-18T01:43:38.280Z,28.4
2017-02-18T01:44:40.236Z,28.4
2017-02-18T01:45:38.476Z,28.3
2017-02-18T01:46:38.442Z,28.3
2017-02-18T01:47:38.474Z,28.3
2017-02-18T01:48:38.475Z,28.3
2017-02-18T01:49:40.400Z,28.3
2017-02-18T01:50:40.772Z,28.3
2017-02-18T01:51:40.554Z,28.3
2017-02-18T01:52:40.639Z,28.3
2017-02-18T01:53:38.843Z,28.3
2017-02-18T01:54:40.780Z,28.3
2017-02-18T01:55:38.818Z,28.3
2017-02-18T01:56:39.130Z,28.3
2017-02-18T01:57:40.835Z,28.3
2017-02-18T01:58:40.969Z,28.3
2017-02-18T01:59:39.015Z,28.3
2017-02-18T02:00:41.107Z,28.3
2017-02-18T02:01:41.160Z,28.3
2017-02-18T02:02:41.349Z,28.3
2017-02-18T02:03:39.432Z,28.3
2017-02-18T02:04:41.319Z,28.3
2017-02-18T02:05:41.329Z,28.3
2017-02-18T02:06:39.514Z,28.3
2017-02-18T02:07:41.453Z,28.3
2017-02-18T02:08:41.677Z,28.3
2017-02-18T02:09:39.611Z,28.3
2017-02-18T02:10:41.473Z,28.3
2017-02-18T02:11:39.633Z,28.3
2017-02-18T02:12:39.657Z,28.3
2017-02-18T02:13:41.851Z,28.3
2017-02-18T02:14:42.034Z,28.3
2017-02-18T02:15:41.877Z,28.3
2017-02-18T02:16:39.962Z,28.3
2017-02-18T02:17:41.920Z,28.3
2017-02-18T02:18:41.915Z,28.3
2017-02-18T02:19:40.152Z,28.3
2017-02-18T02:20:40.369Z,28.3
2017-02-18T02:21:42.061Z,28.3
2017-02-18T02:22:40.268Z,28.3
2017-02-18T02:23:42.188Z,28.3
2017-02-18T02:24:42.295Z,28.3
2017-02-18T02:25:42.239Z,28.3
2017-02-18T02:26:40.553Z,28.3
2017-02-18T02:27:40.476Z,28.3
2017-02-18T02:28:42.321Z,28.3
2017-02-18T02:29:40.506Z,28.3
2017-02-18T02:30:40.555Z,28.3
2017-02-18T02:31:40.494Z,28.3
2017-02-18T02:32:42.806Z,28.3
2017-02-18T02:33:42.463Z,28.3
2017-02-18T02:34:40.715Z,28.3
2017-02-18T02:35:42.587Z,28.3
2017-02-18T02:36:40.825Z,28.3
2017-02-18T02:37:40.818Z,28.3
2017-02-18T02:38:42.993Z,28.3
2017-02-18T02:39:42.822Z,28.3
2017-02-18T02:40:40.960Z,28.3
2017-02-18T02:41:41.107Z,28.3
2017-02-18T02:42:43.053Z,28.3
2017-02-18T02:43:41.202Z,28.3
2017-02-18T02:44:41.435Z,28.3
2017-02-18T02:45:43.135Z,28.3
2017-02-18T02:46:43.322Z,28.3
2017-02-18T02:47:43.295Z,28.3
2017-02-18T02:48:43.296Z,28.3
2017-02-18T02:49:41.459Z,28.3
2017-02-18T02:50:41.624Z,28.3
2017-02-18T02:51:42.249Z,28.3
2017-02-18T02:52:43.452Z,28.3
2017-02-18T02:53:41.636Z,28.3
2017-02-18T02:54:41.595Z,28.3
2017-02-18T02:55:41.750Z,28.3
2017-02-18T02:56:43.817Z,28.3
2017-02-18T02:57:43.744Z,28.3
2017-02-18T02:58:41.934Z,28.3
2017-02-18T02:59:43.975Z,28.3
2017-02-18T03:00:43.985Z,28.2
2017-02-18T03:01:41.964Z,28.2
2017-02-18T03:02:42.310Z,28.2
2017-02-18T03:03:44.170Z,28.2
2017-02-18T03:04:42.238Z,28.2
2017-02-18T03:05:42.347Z,28.2
2017-02-18T03:06:42.346Z,28.2
2017-02-18T03:07:42.396Z,28.2
2017-02-18T03:08:44.644Z,28.2
2017-02-18T03:09:42.650Z,28.2
2017-02-18T03:10:42.584Z,28.2
2017-02-18T03:11:42.735Z,28.2
2017-02-18T03:12:44.699Z,28.2
2017-02-18T03:13:44.714Z,28.2
2017-02-18T03:14:42.985Z,28.2
2017-02-18T03:15:42.860Z,28.2
2017-02-18T03:16:44.873Z,28.2
2017-02-18T03:17:43.034Z,28.2
2017-02-18T03:18:45.137Z,28.2
2017-02-18T03:19:43.264Z,28.2
2017-02-18T03:20:45.391Z,28.2
2017-02-18T03:21:43.229Z,28.2
2017-02-18T03:22:43.264Z,28.2
2017-02-18T03:23:45.290Z,28.2
2017-02-18T03:24:45.308Z,28.2
2017-02-18T03:25:45.418Z,28.2
2017-02-18T03:26:43.713Z,28.2
2017-02-18T03:27:45.455Z,28.2
2017-02-18T03:28:43.540Z,28.2
2017-02-18T03:29:45.492Z,28.2
2017-02-18T03:30:45.609Z,28.2
2017-02-18T03:31:45.656Z,28.2
2017-02-18T03:32:45.739Z,28.2
2017-02-18T03:33:45.647Z,28.2
2017-02-18T03:34:43.804Z,28.2
2017-02-18T03:35:43.768Z,28.2
2017-02-18T03:36:45.757Z,28.2
2017-02-18T03:37:43.855Z,28.2
2017-02-18T03:38:46.227Z,28.2
2017-02-18T03:39:43.968Z,28.2
2017-02-18T03:40:44.029Z,28.2
2017-02-18T03:41:44.146Z,28.2
2017-02-18T03:42:44.221Z,28.2
2017-02-18T03:43:46.110Z,28.2
2017-02-18T03:44:46.413Z,28.2
2017-02-18T03:45:46.326Z,28.2
2017-02-18T03:46:44.511Z,28.2
2017-02-18T03:47:44.543Z,28.2
2017-02-18T03:48:46.371Z,28.2
2017-02-18T03:49:44.526Z,28.2
2017-02-18T03:50:46.747Z,28.2
2017-02-18T03:51:44.673Z,28.2
2017-02-18T03:52:44.596Z,28.2
2017-02-18T03:53:46.562Z,28.2
2017-02-18T03:54:44.738Z,28.2
2017-02-18T03:55:46.724Z,28.2
2017-02-18T03:56:45.016Z,28.2
2017-02-18T03:57:46.710Z,28.2
2017-02-18T03:58:46.732Z,28.2
2017-02-18T03:59:44.822Z,28.2
2017-02-18T04:00:46.827Z,28.2
2017-02-18T04:01:44.848Z,28.2
2017-02-18T04:02:47.058Z,28.2
2017-02-18T04:03:46.989Z,28.2
2017-02-18T04:04:45.176Z,28.2
2017-02-18T04:05:47.050Z,28.2
2017-02-18T04:06:45.196Z,28.2
2017-02-18T04:07:47.211Z,28.2
2017-02-18T04:08:45.580Z,28.2
2017-02-18T04:09:45.289Z,28.2
2017-02-18T04:10:45.407Z,28.2
2017-02-18T04:11:45.431Z,28.2
2017-02-18T04:12:45.453Z,28.2
2017-02-18T04:13:45.493Z,28.2
2017-02-18T04:14:47.808Z,28.2
2017-02-18T04:15:47.639Z,28.2
2017-02-18T04:16:47.751Z,28.2
2017-02-18T04:17:45.807Z,28.2
2017-02-18T04:18:47.770Z,28.2
2017-02-18T04:19:45.860Z,28.2
2017-02-18T04:20:46.103Z,28.2
2017-02-18T04:21:47.919Z,28.2
2017-02-18T04:22:46.035Z,28.2
2017-02-18T04:23:47.976Z,28.2
2017-02-18T04:24:46.047Z,28.2
2017-02-18T04:25:46.126Z,28.2
2017-02-18T04:26:46.331Z,28.2
2017-02-18T04:27:46.160Z,28.2
2017-02-18T04:28:48.234Z,28.1
2017-02-18T04:29:46.289Z,28.2
2017-02-18T04:30:48.390Z,28.1
2017-02-18T04:31:46.406Z,28.1
2017-02-18T04:32:48.612Z,28.1
2017-02-18T04:33:48.370Z,28.1
2017-02-18T04:34:48.421Z,28.1
2017-02-18T04:35:46.644Z,28.1
2017-02-18T04:36:46.748Z,28.2
2017-02-18T04:37:48.564Z,28.1
2017-02-18T04:38:46.933Z,28.2
2017-02-18T04:39:46.791Z,28.1
2017-02-18T04:40:46.844Z,28.1
2017-02-18T04:41:48.686Z,28.1
2017-02-18T04:42:46.910Z,28.1
2017-02-18T04:43:46.965Z,28.1
2017-02-18T04:44:49.238Z,28.1
2017-02-18T04:45:48.135Z,28.1
2017-02-18T04:46:47.095Z,28.1
2017-02-18T04:47:49.035Z,28.1
2017-02-18T04:48:50.510Z,28.1
2017-02-18T04:49:47.253Z,28.1
2017-02-18T04:50:47.516Z,28.1
2017-02-18T04:51:49.193Z,28.1
2017-02-18T04:52:49.213Z,28.1
2017-02-18T04:53:47.449Z,28.1
2017-02-18T04:54:49.364Z,28.1
2017-02-18T04:55:49.514Z,28.1
2017-02-18T04:56:47.973Z,28.1
2017-02-18T04:57:49.558Z,28.1
2017-02-18T04:58:47.694Z,28.1
2017-02-18T04:59:47.790Z,28.1
2017-02-18T05:00:47.784Z,28.1
2017-02-18T05:01:49.705Z,28.1
2017-02-18T05:02:49.955Z,28.1
2017-02-18T05:03:49.826Z,28.1
2017-02-18T05:04:48.041Z,28.1
2017-02-18T05:05:47.962Z,28.1
2017-02-18T05:06:49.978Z,28.1
2017-02-18T05:07:48.135Z,28.1
2017-02-18T05:08:50.252Z,28.1
2017-02-18T05:09:50.015Z,28.1
2017-02-18T05:10:50.152Z,28.1
2017-02-18T05:11:50.187Z,28.1
2017-02-18T05:12:50.191Z,28.1
2017-02-18T05:13:48.369Z,28.1
2017-02-18T05:14:48.567Z,28.1
2017-02-18T05:15:48.331Z,28.1
2017-02-18T05:16:50.324Z,28.1
2017-02-18T05:17:50.446Z,28.1
2017-02-18T05:18:50.454Z,28.1
2017-02-18T05:19:50.416Z,28.1
2017-02-18T05:20:50.805Z,28.1
2017-02-18T05:21:48.675Z,28.1
2017-02-18T05:22:50.652Z,28.1
2017-02-18T05:23:50.624Z,28.1
2017-02-18T05:24:48.753Z,28.1
2017-02-18T05:25:50.820Z,28.1
2017-02-18T05:26:51.243Z,28.1
2017-02-18T05:27:49.075Z,28.1
2017-02-18T05:28:49.060Z,28.1
2017-02-18T05:29:49.103Z,28.1
2017-02-18T05:30:49.126Z,28.1
2017-02-18T05:31:49.224Z,28.1
2017-02-18T05:32:51.472Z,28.1
2017-02-18T05:33:51.111Z,28.1
2017-02-18T05:34:51.168Z,28.1
2017-02-18T05:35:51.205Z,28.1
2017-02-18T05:36:51.341Z,28.1
2017-02-18T05:37:51.348Z,28.1
2017-02-18T05:38:49.785Z,28.1
2017-02-18T05:39:49.600Z,28.1
2017-02-18T05:40:51.516Z,28.1
2017-02-18T05:41:51.545Z,28.1
2017-02-18T05:42:51.609Z,28.1
2017-02-18T05:43:49.687Z,28.1
2017-02-18T05:44:51.833Z,28.1
2017-02-18T05:45:49.883Z,28.1
2017-02-18T05:46:50.359Z,28.1
2017-02-18T05:47:51.863Z,28.1
2017-02-18T05:48:53.108Z,28.1
2017-02-18T05:49:51.973Z,28.1
2017-02-18T05:50:50.263Z,28
2017-02-18T05:51:52.122Z,28
2017-02-18T05:52:52.219Z,28
2017-02-18T05:53:50.407Z,28
2017-02-18T05:54:50.352Z,28
2017-02-18T05:55:50.497Z,28
2017-02-18T05:56:52.785Z,28
2017-02-18T05:57:50.535Z,28
2017-02-18T05:58:52.531Z,28.1
2017-02-18T05:59:50.765Z,28
2017-02-18T06:00:52.677Z,28.1
2017-02-18T06:01:52.787Z,28
2017-02-18T06:02:53.091Z,28
2017-02-18T06:03:51.056Z,28
2017-02-18T06:04:53.037Z,28
2017-02-18T06:05:51.091Z,28
2017-02-18T06:06:53.078Z,28
2017-02-18T06:07:51.188Z,28.1
2017-02-18T06:08:53.401Z,28
2017-02-18T06:09:51.173Z,28.1
2017-02-18T06:10:51.300Z,28
2017-02-18T06:11:53.153Z,28.1
2017-02-18T06:12:51.354Z,28
2017-02-18T06:13:53.244Z,28
2017-02-18T06:14:51.671Z,28
2017-02-18T06:15:53.271Z,28
2017-02-18T06:16:51.519Z,28
2017-02-18T06:17:53.446Z,28
2017-02-18T06:18:53.530Z,28
2017-02-18T06:19:53.568Z,28
2017-02-18T06:20:51.744Z,28
2017-02-18T06:21:51.741Z,28
2017-02-18T06:22:51.917Z,28
2017-02-18T06:23:51.916Z,28
2017-02-18T06:24:51.978Z,28
2017-02-18T06:25:52.073Z,28
2017-02-18T06:26:54.054Z,28
2017-02-18T06:27:54.046Z,28
2017-02-18T06:28:52.240Z,28
2017-02-18T06:29:54.190Z,28
2017-02-18T06:30:52.452Z,28
2017-02-18T06:31:52.434Z,28
2017-02-18T06:32:54.471Z,28
2017-02-18T06:33:54.438Z,28
2017-02-18T06:34:54.581Z,28
2017-02-18T06:35:52.761Z,28
2017-02-18T06:36:52.666Z,28
2017-02-18T06:37:52.707Z,28
2017-02-18T06:38:54.684Z,28
2017-02-18T06:39:54.714Z,28
2017-02-18T06:40:54.683Z,28
2017-02-18T06:41:54.725Z,28
2017-02-18T06:42:54.822Z,28
2017-02-18T06:43:54.951Z,28
2017-02-18T06:44:54.975Z,28
2017-02-18T06:45:55.055Z,28
2017-02-18T06:46:53.074Z,28
2017-02-18T06:47:55.137Z,28
2017-02-18T06:48:55.231Z,28
2017-02-18T06:49:55.328Z,28
2017-02-18T06:50:53.349Z,28
2017-02-18T06:51:55.360Z,28
2017-02-18T06:52:53.464Z,28
2017-02-18T06:53:55.446Z,28
2017-02-18T06:54:53.541Z,28
2017-02-18T06:55:53.723Z,28
2017-02-18T06:56:53.659Z,28
2017-02-18T06:57:55.693Z,28
2017-02-18T06:58:55.791Z,28
2017-02-18T06:59:53.915Z,28
2017-02-18T07:00:54.018Z,28
2017-02-18T07:01:55.977Z,28
2017-02-18T07:02:54.097Z,28
2017-02-18T07:03:56.072Z,28
2017-02-18T07:04:54.094Z,28
2017-02-18T07:05:56.079Z,28
2017-02-18T07:06:54.201Z,28
2017-02-18T07:07:54.314Z,28
2017-02-18T07:08:54.329Z,28
2017-02-18T07:09:54.336Z,28
2017-02-18T07:10:54.319Z,28
2017-02-18T07:11:56.368Z,28
2017-02-18T07:12:56.356Z,28
2017-02-18T07:13:56.498Z,28
2017-02-18T07:14:56.548Z,28
2017-02-18T07:15:56.588Z,28
2017-02-18T07:16:56.553Z,28
2017-02-18T07:17:54.639Z,28
2017-02-18T07:18:56.631Z,28
2017-02-18T07:19:54.724Z,28
2017-02-18T07:20:56.730Z,28
2017-02-18T07:21:56.674Z,28
2017-02-18T07:22:54.858Z,28
2017-02-18T07:23:54.959Z,27.9
2017-02-18T07:24:56.882Z,27.9
2017-02-18T07:25:55.075Z,28
2017-02-18T07:26:55.097Z,28
2017-02-18T07:27:55.127Z,28
2017-02-18T07:28:55.078Z,27.9
2017-02-18T07:29:55.186Z,27.9
2017-02-18T07:30:55.113Z,28
2017-02-18T07:31:55.198Z,28
2017-02-18T07:32:55.386Z,28
2017-02-18T07:33:57.404Z,28
2017-02-18T07:34:57.395Z,27.9
2017-02-18T07:35:57.338Z,27.9
2017-02-18T07:36:57.461Z,27.9
2017-02-18T07:37:57.481Z,27.9
2017-02-18T07:38:55.570Z,27.9
2017-02-18T07:39:57.554Z,27.9
2017-02-18T07:40:55.615Z,27.9
2017-02-18T07:41:55.769Z,27.9
2017-02-18T07:42:57.798Z,27.9
2017-02-18T07:43:57.695Z,27.9
2017-02-18T07:44:55.844Z,27.9
2017-02-18T07:45:55.925Z,27.9
2017-02-18T07:46:57.925Z,27.9
2017-02-18T07:47:56.030Z,27.9
2017-02-18T07:48:58.074Z,27.9
2017-02-18T07:49:56.211Z,27.9
2017-02-18T07:50:58.076Z,27.9
2017-02-18T07:51:56.213Z,27.9
2017-02-18T07:52:58.128Z,27.9
2017-02-18T07:53:58.221Z,27.9
2017-02-18T07:54:56.375Z,27.9
2017-02-18T07:55:58.260Z,27.9
2017-02-18T07:56:56.409Z,27.9
2017-02-18T07:57:56.486Z,27.9
2017-02-18T07:58:56.667Z,27.9
2017-02-18T07:59:58.552Z,27.9
2017-02-18T08:00:58.723Z,27.8
2017-02-18T08:01:58.749Z,27.8
2017-02-18T08:02:56.925Z,27.8
2017-02-18T08:03:58.854Z,27.8
2017-02-18T08:04:56.927Z,27.8
2017-02-18T08:05:57.110Z,27.8
2017-02-18T08:06:57.137Z,27.8
2017-02-18T08:07:58.975Z,27.8
2017-02-18T08:08:59.062Z,27.8
2017-02-18T08:09:58.978Z,27.8
2017-02-18T08:10:57.212Z,27.8
2017-02-18T08:11:59.143Z,27.8
2017-02-18T08:12:57.314Z,27.8
2017-02-18T08:13:57.419Z,27.8
2017-02-18T08:14:57.496Z,27.8
2017-02-18T08:15:59.454Z,27.8
2017-02-18T08:16:57.497Z,27.8
2017-02-18T08:17:57.708Z,27.8
2017-02-18T08:18:57.665Z,27.8
2017-02-18T08:19:59.667Z,27.8
2017-02-18T08:20:57.789Z,27.8
2017-02-18T08:21:57.960Z,27.8
2017-02-18T08:22:59.909Z,27.8
2017-02-18T08:23:58.050Z,27.8
2017-02-18T08:24:58.081Z,27.8
2017-02-18T08:25:58.070Z,27.8
2017-02-18T08:27:00.090Z,27.8
2017-02-18T08:28:00.249Z,27.8
2017-02-18T08:28:58.305Z,27.8
2017-02-18T08:30:00.403Z,27.8
2017-02-18T08:31:00.423Z,27.8
2017-02-18T08:31:58.580Z,27.8
2017-02-18T08:33:00.481Z,27.8
2017-02-18T08:33:58.669Z,27.8
2017-02-18T08:34:58.692Z,27.8
2017-02-18T08:35:58.843Z,27.8
2017-02-18T08:37:00.807Z,27.8
2017-02-18T08:38:00.825Z,27.7
2017-02-18T08:39:00.816Z,27.7
2017-02-18T08:39:59.055Z,27.7
2017-02-18T08:40:58.966Z,27.7
2017-02-18T08:41:59.076Z,27.7
2017-02-18T08:42:59.009Z,27.7
2017-02-18T08:43:59.117Z,27.7
2017-02-18T08:44:59.095Z,27.7
2017-02-18T08:45:59.151Z,27.7
2017-02-18T08:46:59.223Z,27.7
2017-02-18T08:48:01.271Z,27.7
2017-02-18T08:49:01.293Z,27.7
2017-02-18T08:49:59.556Z,27.7
2017-02-18T08:51:01.372Z,27.7
2017-02-18T08:52:01.422Z,27.7
2017-02-18T08:52:59.593Z,27.7
2017-02-18T08:54:01.552Z,27.7
2017-02-18T08:54:59.620Z,27.7
2017-02-18T08:55:59.736Z,27.7
2017-02-18T08:57:01.673Z,27.7
2017-02-18T08:58:01.835Z,27.7
2017-02-18T08:58:59.968Z,27.7
2017-02-18T08:59:59.995Z,27.7
2017-02-18T09:01:00.004Z,27.7
2017-02-18T09:02:02.003Z,27.7
2017-02-18T09:03:02.056Z,27.7
2017-02-18T09:04:02.078Z,27.7
2017-02-18T09:05:02.155Z,27.7
2017-02-18T09:06:02.124Z,27.7
2017-02-18T09:07:02.231Z,27.7
2017-02-18T09:08:00.271Z,27.7
2017-02-18T09:09:02.174Z,27.7
2017-02-18T09:10:02.342Z,27.7
2017-02-18T09:11:02.300Z,27.7
2017-02-18T09:12:00.374Z,27.7
2017-02-18T09:13:00.561Z,27.7
2017-02-18T09:14:02.453Z,27.7
2017-02-18T09:15:02.544Z,27.7
2017-02-18T09:16:02.543Z,27.7
2017-02-18T09:17:02.636Z,27.7
2017-02-18T09:18:02.650Z,27.7
2017-02-18T09:19:02.637Z,27.7
2017-02-18T09:20:02.718Z,27.7
2017-02-18T09:21:02.722Z,27.7
2017-02-18T09:22:00.930Z,27.6
2017-02-18T09:23:02.811Z,27.6
2017-02-18T09:24:00.982Z,27.6
2017-02-18T09:25:01.054Z,27.6
2017-02-18T09:26:01.105Z,27.6
2017-02-18T09:27:03.071Z,27.6
2017-02-18T09:28:03.047Z,27.6
2017-02-18T09:29:01.224Z,27.6
2017-02-18T09:30:01.318Z,27.6
2017-02-18T09:31:01.406Z,27.6
2017-02-18T09:32:01.463Z,27.6
2017-02-18T09:33:03.438Z,27.6
2017-02-18T09:34:03.458Z,27.6
2017-02-18T09:35:03.473Z,27.6
2017-02-18T09:36:01.572Z,27.6
2017-02-18T09:37:03.527Z,27.6
2017-02-18T09:38:03.606Z,27.6
2017-02-18T09:39:03.737Z,27.6
2017-02-18T09:40:01.780Z,27.6
2017-02-18T09:41:03.802Z,27.6
2017-02-18T09:42:03.818Z,27.6
2017-02-18T09:43:01.962Z,27.6
2017-02-18T09:44:01.977Z,27.6
2017-02-18T09:45:02.147Z,27.6
2017-02-18T09:46:04.050Z,27.6
2017-02-18T09:47:02.251Z,27.6
2017-02-18T09:48:02.272Z,27.5
2017-02-18T09:49:02.268Z,27.5
2017-02-18T09:50:02.305Z,27.5
2017-02-18T09:51:02.394Z,27.5
2017-02-18T09:52:04.321Z,27.5
2017-02-18T09:53:02.481Z,27.4
2017-02-18T09:54:02.528Z,27.4
2017-02-18T09:55:02.614Z,27.4
2017-02-18T09:56:04.739Z,27.4
2017-02-18T09:57:02.762Z,27.4
2017-02-18T09:58:04.685Z,27.3
2017-02-18T09:59:02.698Z,27.3
2017-02-18T10:00:02.793Z,27.3
2017-02-18T10:01:04.741Z,27.2
2017-02-18T10:02:03.082Z,27.2
2017-02-18T10:03:02.812Z,27.2
2017-02-18T10:04:02.951Z,27.2
2017-02-18T10:05:04.862Z,27.1
2017-02-18T10:06:04.862Z,27.1
2017-02-18T10:07:03.012Z,27.1
2017-02-18T10:08:05.127Z,27.1
2017-02-18T10:09:03.080Z,27.1
2017-02-18T10:10:04.922Z,27.1
2017-02-18T10:11:05.009Z,27
2017-02-18T10:12:05.086Z,27
2017-02-18T10:13:05.219Z,27
2017-02-18T10:14:05.384Z,27
2017-02-18T10:15:03.339Z,27
2017-02-18T10:16:05.362Z,27
2017-02-18T10:17:03.570Z,27
2017-02-18T10:18:03.574Z,27
2017-02-18T10:19:03.779Z,27
2017-02-18T10:20:03.696Z,27
2017-02-18T10:21:05.763Z,27
2017-02-18T10:22:03.824Z,27
2017-02-18T10:23:05.814Z,27
2017-02-18T10:24:04.024Z,27
2017-02-18T10:25:04.285Z,27
2017-02-18T10:26:05.999Z,27
2017-02-18T10:27:06.001Z,27
2017-02-18T10:28:04.119Z,27
2017-02-18T10:29:04.121Z,27
2017-02-18T10:30:06.139Z,27
2017-02-18T10:31:04.330Z,27
2017-02-18T10:32:04.131Z,27
2017-02-18T10:33:04.280Z,27
2017-02-18T10:34:06.216Z,27
2017-02-18T10:35:04.337Z,27
2017-02-18T10:36:06.209Z,27
2017-02-18T10:37:04.541Z,27
2017-02-18T10:38:04.446Z,27
2017-02-18T10:39:04.522Z,27
2017-02-18T10:40:06.357Z,27
2017-02-18T10:41:04.594Z,27
2017-02-18T10:42:04.571Z,27
2017-02-18T10:43:04.908Z,27.1
2017-02-18T10:44:06.610Z,27.1
2017-02-18T10:45:04.778Z,27.1
2017-02-18T10:46:04.875Z,27.1
2017-02-18T10:47:06.884Z,27.1
2017-02-18T10:48:06.968Z,27.1
2017-02-18T10:49:05.287Z,27.1
2017-02-18T10:50:06.021Z,27.1
2017-02-18T10:51:05.350Z,27.1
2017-02-18T10:52:07.205Z,27.1
2017-02-18T10:53:05.336Z,27.1
2017-02-18T10:54:07.801Z,27.1
2017-02-18T10:55:07.569Z,27.1
2017-02-18T10:56:07.335Z,27.1
2017-02-18T10:57:05.522Z,27.1
2017-02-18T10:58:05.575Z,27.1
2017-02-18T10:59:07.451Z,27.1
2017-02-18T11:00:05.595Z,27.1
2017-02-18T11:01:07.767Z,27.1
2017-02-18T11:02:05.623Z,27.1
2017-02-18T11:03:05.918Z,27.1
2017-02-18T11:04:07.827Z,27.1
2017-02-18T11:05:08.648Z,27.1
2017-02-18T11:06:07.893Z,27.1
2017-02-18T11:07:06.853Z,27.1
2017-02-18T11:08:06.056Z,27.1
2017-02-18T11:12:41.779Z,27.1
2017-02-18T11:13:42.878Z,27.1
2017-02-18T11:14:42.992Z,27.1
2017-02-18T11:15:42.880Z,27.1
2017-02-18T11:16:41.081Z,27.1
2017-02-18T11:17:43.055Z,27.1
2017-02-18T11:18:42.045Z,27.1
2017-02-18T11:19:43.251Z,27.2
2017-02-18T11:20:41.374Z,27.1
2017-02-18T11:21:41.436Z,27.1
2017-02-18T11:22:43.529Z,27.1
2017-02-18T11:23:44.067Z,27.1
2017-02-18T11:24:42.492Z,27.1
2017-02-18T11:25:43.613Z,27.1
2017-02-18T11:26:41.795Z,27.1
2017-02-18T11:27:43.713Z,27.1
2017-02-18T11:28:43.582Z,27.1
2017-02-18T11:29:42.362Z,27.1
2017-02-18T11:30:41.990Z,27.1
2017-02-18T11:31:41.805Z,27.1
2017-02-18T11:32:41.928Z,27.1
2017-02-18T11:33:41.977Z,27.1
2017-02-18T11:34:44.066Z,27.1
2017-02-18T11:35:42.155Z,27.1
2017-02-18T11:36:44.473Z,27.1
2017-02-18T11:37:44.196Z,27.1
2017-02-18T11:38:44.249Z,27.1
2017-02-18T11:39:44.330Z,27.1
2017-02-18T11:40:44.342Z,27.1
2017-02-18T11:41:42.442Z,27.1
2017-02-18T11:42:42.701Z,27.1
2017-02-18T11:43:42.682Z,27.1
2017-02-18T11:44:44.560Z,27.1
2017-02-18T11:45:45.526Z,27.1
2017-02-18T11:46:42.798Z,27.1
2017-02-18T11:47:44.745Z,27.1
2017-02-18T11:48:43.212Z,27.1
2017-02-18T11:49:42.869Z,27.1
2017-02-18T11:50:42.942Z,27.1
2017-02-18T11:51:43.096Z,27.1
2017-02-18T11:52:45.020Z,27.1
2017-02-18T11:53:45.213Z,27.1
2017-02-18T11:54:45.476Z,27.1
2017-02-18T11:55:45.424Z,27.1
2017-02-18T11:56:43.495Z,27.1
2017-02-18T11:57:45.409Z,27.1
2017-02-18T11:58:43.520Z,27.1
2017-02-18T11:59:43.533Z,27.1
2017-02-18T12:00:45.762Z,27.1
2017-02-18T12:01:45.687Z,27.1
2017-02-18T12:02:45.719Z,27.1
2017-02-18T12:03:43.756Z,27.2
2017-02-18T12:04:45.714Z,27.2
2017-02-18T12:05:43.893Z,27.2
2017-02-18T12:06:46.191Z,27.1
2017-02-18T12:07:46.013Z,27.1
2017-02-18T12:08:46.109Z,27.1
2017-02-18T12:09:44.291Z,27.1
2017-02-18T12:10:46.267Z,27.2
2017-02-18T12:11:46.303Z,27.1
2017-02-18T12:12:44.684Z,27.1
2017-02-18T12:13:46.429Z,27.1
2017-02-18T12:14:46.497Z,27.1
2017-02-18T12:15:44.599Z,27.1
2017-02-18T12:16:46.434Z,27.1
2017-02-18T12:17:44.652Z,27
2017-02-18T12:18:44.823Z,27
2017-02-18T12:19:46.668Z,27
2017-02-18T12:20:44.716Z,27
2017-02-18T12:21:44.777Z,27
2017-02-18T12:22:44.874Z,27
2017-02-18T12:23:47.003Z,27
2017-02-18T12:24:45.292Z,27
2017-02-18T12:25:46.950Z,27
2017-02-18T12:26:46.986Z,27
2017-02-18T12:27:47.033Z,27
2017-02-18T12:28:47.043Z,27
2017-02-18T12:29:47.144Z,27
2017-02-18T12:30:47.285Z,27.1
2017-02-18T12:31:45.299Z,27.1
2017-02-18T12:32:47.320Z,27.1
2017-02-18T12:33:47.245Z,27
2017-02-18T12:34:45.411Z,27
2017-02-18T12:35:47.413Z,27
2017-02-18T12:36:47.615Z,27
2017-02-18T12:37:47.514Z,26.9
2017-02-18T12:38:47.502Z,26.9
2017-02-18T12:39:45.661Z,26.9
2017-02-18T12:40:47.764Z,27
2017-02-18T12:41:48.709Z,27
2017-02-18T12:42:46.134Z,26.9
2017-02-18T12:43:45.924Z,27
2017-02-18T12:44:46.043Z,27
2017-02-18T12:45:48.737Z,26.9
2017-02-18T12:46:48.084Z,26.9
2017-02-18T12:47:46.140Z,26.9
2017-02-18T12:48:46.442Z,26.9
2017-02-18T12:49:48.225Z,26.8
2017-02-18T12:50:48.135Z,26.8
2017-02-18T12:51:46.398Z,26.8
2017-02-18T12:52:48.380Z,26.8
2017-02-18T12:53:46.471Z,26.8
2017-02-18T12:54:48.760Z,26.8
2017-02-18T12:55:48.529Z,26.8
2017-02-18T12:56:46.634Z,26.8
2017-02-18T12:57:46.642Z,26.9
2017-02-18T12:58:48.676Z,26.9
2017-02-18T12:59:46.734Z,26.9
2017-02-18T13:00:47.016Z,26.9
2017-02-18T13:01:48.827Z,26.9
2017-02-18T13:02:46.965Z,26.9
2017-02-18T13:03:47.021Z,26.9
2017-02-18T13:04:48.835Z,26.9
2017-02-18T13:05:48.894Z,26.9
2017-02-18T13:06:47.243Z,26.9
2017-02-18T13:07:47.046Z,27
2017-02-18T13:08:49.050Z,27
2017-02-18T13:09:47.186Z,27
2017-02-18T13:10:49.121Z,27
2017-02-18T13:11:47.259Z,27
2017-02-18T13:12:47.431Z,27
2017-02-18T13:13:49.196Z,27
2017-02-18T13:14:47.506Z,27
2017-02-18T13:15:47.419Z,27
2017-02-18T13:16:47.564Z,27
2017-02-18T13:17:49.429Z,27
2017-02-18T13:18:49.713Z,27
2017-02-18T13:19:47.557Z,27
2017-02-18T13:20:49.596Z,27.1
2017-02-18T13:21:49.663Z,27.1
2017-02-18T13:22:47.835Z,27.1
2017-02-18T13:23:49.851Z,27.1
2017-02-18T13:24:48.088Z,27.1
2017-02-18T13:25:48.050Z,27.1
2017-02-18T13:26:49.865Z,27.1
2017-02-18T13:27:49.869Z,27.1
2017-02-18T13:28:49.910Z,27.1
2017-02-18T13:29:48.038Z,27.1
2017-02-18T13:30:50.134Z,27.1
2017-02-18T13:31:50.129Z,27.1
2017-02-18T13:32:48.168Z,27.1
2017-02-18T13:33:48.224Z,27.1